プンタアレナス空港の過去48時間の天気

プンタアレナス空港 (Punta Arenas)

現在時刻: 7/21 22:25 -04 (7/22 02:25 UTC) 以下の時間は現地時間です。

過去48時間のMETAR気象情報
時間 風向 風速(m/s) 視程 気温(℃) 湿度(%) 気圧(hPa) 天気現象
21 22:00 西南西 6 10km以上 2 87 996
21 21:00 西 7 10km以上 2 87 996
21 20:00 西 8 10km以上 2 81 995
21 19:00 西 8 10km以上 2 81 995
21 18:00 西南西 11 10km以上 2 81 995
21 17:00 西南西 11 10km以上 3 70 994
21 16:00 西南西 8 10km以上 2 81 994
21 15:00 西南西 10 10km以上 3 75 994
21 14:00 西南西 9 10km以上 3 81 993
21 13:00 - - 10km以上 3 81 993
21 12:00 西南西 8 10km以上 3 81 993
21 11:00 西南西 9 10km以上 3 75 992
21 10:00 西南西 8 10km以上 2 87 992
21 09:00 西南西 10 10km以上 1 93 991
21 08:00 西南西 9 10km以上 2 87 990
21 07:00 西南西 10 10km以上 2 93 989
21 06:00 西南西 10 10km以上 2 93 989
21 05:00 西南西 9 10km以上 2 87 988
21 04:00 西南西 7 10km以上 1 93 987
21 03:00 西 5 10km以上 1 86 987
21 02:00 西南西 5 10km以上 1 86 986
21 01:00 南西 4 10km以上 1 86 986
21 00:00 南西 4 10km以上 1 86 985
20 23:00 西南西 6 10km以上 1 93 984
20 22:00 南南西 5 10km以上 1 93 983
20 21:00 西南西 7 7000m 1 93 982 弱いしゅう雨 弱いしゅう雪
20 20:00 西 10 8000m 1 93 980 弱い雨 弱い雪
20 19:00 西 10 10km以上 2 93 980 弱いしゅう雨
20 18:00 北北西 4 10km以上 2 87 980 弱いしゅう雨 弱いしゅう雪
20 17:13 北西 6 9000m 3 75 980 弱いしゅう雨 弱いしゅう雪
20 17:00 北北西 6 10km以上 3 70 980
20 16:00 北北西 6 10km以上 3 70 981
20 15:00 4 10km以上 3 75 981
20 14:00 5 10km以上 2 81 982 弱いしゅう雨
20 13:00 4 10km以上 2 81 983 弱いしゅう雨
20 12:00 北西 6 10km以上 2 81 984
20 11:00 北西 7 10km以上 1 80 984
20 10:00 北北西 4 10km以上 -1 86 985
20 09:00 北西 5 10km以上 -1 86 985
20 08:00 西北西 7 10km以上 0 80 985
20 07:00 北西 6 10km以上 -1 86 985
20 06:00 北西 5 10km以上 0 80 985
20 05:00 北西 7 10km以上 0 80 985
20 04:00 北西 6 10km以上 0 86 985
20 03:00 北西 5 10km以上 0 86 985
20 02:00 西 7 10km以上 1 86 985
20 01:00 西北西 6 10km以上 1 86 986
20 00:00 西 6 10km以上 1 80 986
19 23:00 西 5 10km以上 1 86 986
SCCI 220200Z 25012KT 9999 FEW016 BKN100 02/M00 Q0996 NOSIG
SCCI 220100Z 26013KT 9999 SCT016 BKN100 02/M00 Q0996 NOSIG
SCCI 220000Z 27015KT 9999 SCT016 BKN100 02/M01 Q0995 NOSIG
SCCI 212300Z 26016KT CAVOK 02/M01 Q0995 NOSIG
SCCI 212200Z 25022KT CAVOK 02/M01 Q0995 NOSIG
SCCI 212100Z 24021KT CAVOK 03/M02 Q0994 NOSIG
SCCI 212000Z 25016KT CAVOK 02/M01 Q0994 NOSIG
SCCI 211900Z 25019KT 9999 FEW017 SCT100 03/M01 Q0994 NOSIG
SCCI 211800Z 25017KT 9999 FEW017 SCT200 03/00 Q0993 NOSIG
SCCI 211700Z 25015T CAVOK 03/M00 Q0993 NOSIG
SCCI 211600Z 25016KT CAVOK 03/M00 Q0993 NOSIG
SCCI 211500Z 24018KT CAVOK 03/M01 Q0992 NOSIG
SCCI 211400Z 24015KT CAVOK 02/M00 Q0992 NOSIG
SCCI 211300Z 25020KT CAVOK 01/M00 Q0991 NOSIG
SCCI 211200Z 25018KT CAVOK 02/00 Q0990 NOSIG
SCCI 211100Z 25019KT 9999 FEW007 BKN100 02/01 Q0989 NOSIG
SCCI 211000Z 25019KT CAVOK 02/01 Q0989 NOSIG
SCCI 210900Z 25017KT CAVOK 02/00 Q0988 NOSIG
SCCI 210800Z 24014KT 9999 FEW030 01/M00 Q0987 NOSIG
SCCI 210700Z 26010KT 9999 CAVOK 01/M01 Q0987 NOSIG
SCCI 210600Z 24010KT 9999 BKN030 01/M01 Q0986 NOSIG
SCCI 210500Z 22008KT 9999 BKN046 SCT200 01/M01 Q0986 NOSIG
SCCI 210400Z 22008KT 9999 SCT030 SCT200 01/M01 Q0985 NOSIG
SCCI 210300Z 24012KT CAVOK 01/M00 Q0984 NOSIG
SCCI 210200Z 21009KT 9999 SCT007 01/00 Q0983 NOSIG
SCCI 210100Z 24013KT 7000 -SHRASN FEW005 BKN056 01/00 Q0982 NOSIG
SCCI 210000Z 27020KT 8000 -RASN FEW013 BKN080 01/00 Q0980 NOSIG
SCCI 202300Z 28020KT 9999 -SHRA SCT016 BKN020 02/01 Q0980 NOSIG
SCCI 202200Z 33007KT 9999 -SHRASN SCT016 BKN020 02/M00 Q0980 NOSIG
SCCI 202113Z 32011KT 9000 -SHRASN SCT016 BKN030 03/M01 Q0980 NOSIG
SCCI 202100Z 34012KT 9999 FEW045 BKN070 03/M02 Q0980 NOSIG
SCCI 202000Z 34012KT 9999 FEW045 BKN070 03/M02 Q0981 NOSIG
SCCI 201900Z 36008KT 9999 FEW045 BKN070 03/M01 Q0981 NOSIG
SCCI 201800Z 35009KT 9999 -SHRA FEW045 BKN070 02/M01 Q0982 NOSIG
SCCI 201700Z 35007KT 9999 -SHRA FEW045 BKN070 02/M01 Q0983 NOSIG
SCCI 201600Z 31012KT 9999 FEW045 SCT100 02/M01 Q0984 NOSIG
SCCI 201500Z 31013KT 9999 FEW045 BKN100 01/M02 Q0984 NOSIG
SCCI 201400Z 33008KT 9999 FEW045 BKN100 M01/M03 Q0985 NOSIG
SCCI 201300Z 31009KT 9999 FEW045 BKN120 M01/M03 Q0985 NOSIG
SCCI 201200Z 30013KT 9999 FEW045 BKN120 M00/M03 Q0985 NOSIG
SCCI 201100Z 32011KT CAVOK M01/M03 Q0985 NOSIG
SCCI 201000Z 32009KT CAVOK M00/M03 Q0985 NOSIG
SCCI 200900Z 31013KT CAVOK M00/M03 Q0985 NOSIG
SCCI 200800Z 32011KT CAVOK 00/M02 Q0985 NOSIG
SCCI 200700Z 31009KT CAVOK M00/M02 Q0985 NOSIG
SCCI 200600Z 28014KT CAVOK 01/M01 Q0985 NOSIG
SCCI 200500Z 29012KT CAVOK 01/M01 Q0986 NOSIG
SCCI 200400Z 28012KT CAVOK 01/M02 Q0986 NOSIG
SCCI 200300Z 28010KT CAVOK 01/M01 Q0986 NOSIG